sensor_id;sensor_type;location;lat;lon;timestamp;pressure;altitude;pressure_sealevel;temperature;humidity
41254;BME280;26987;59.928;30.306;2022-09-12T00:01:50;101481.94;;;8.07;100.00
41254;BME280;26987;59.928;30.306;2022-09-12T00:04:17;101479.91;;;8.09;100.00
41254;BME280;26987;59.928;30.306;2022-09-12T00:06:45;101477.25;;;8.09;100.00
41254;BME280;26987;59.928;30.306;2022-09-12T00:09:15;101484.59;;;8.07;100.00
41254;BME280;26987;59.928;30.306;2022-09-12T00:11:44;101487.63;;;8.04;100.00
41254;BME280;26987;59.928;30.306;2022-09-12T00:14:14;101481.09;;;8.06;100.00
41254;BME280;26987;59.928;30.306;2022-09-12T00:16:43;101484.59;;;8.07;100.00
41254;BME280;26987;59.928;30.306;2022-09-12T00:19:11;101482.91;;;8.06;100.00
41254;BME280;26987;59.928;30.306;2022-09-12T00:21:40;101476.75;;;8.05;100.00
41254;BME280;26987;59.928;30.306;2022-09-12T00:24:08;101485.75;;;8.04;100.00
41254;BME280;26987;59.928;30.306;2022-09-12T00:26:38;101476.75;;;8.05;100.00
41254;BME280;26987;59.928;30.306;2022-09-12T00:29:06;101483.25;;;8.03;100.00
41254;BME280;26987;59.928;30.306;2022-09-12T00:31:34;101484.28;;;8.02;100.00
41254;BME280;26987;59.928;30.306;2022-09-12T00:34:02;101486.09;;;8.01;100.00
41254;BME280;26987;59.928;30.306;2022-09-12T00:36:30;101475.78;;;7.98;100.00
41254;BME280;26987;59.928;30.306;2022-09-12T00:38:58;101474.78;;;7.91;100.00
41254;BME280;26987;59.928;30.306;2022-09-12T00:41:28;101486.47;;;7.98;100.00
41254;BME280;26987;59.928;30.306;2022-09-12T00:43:59;101484.94;;;7.95;100.00
41254;BME280;26987;59.928;30.306;2022-09-12T00:46:32;101484.31;;;7.93;100.00
41254;BME280;26987;59.928;30.306;2022-09-12T00:49:05;101481.97;;;7.90;100.00
41254;BME280;26987;59.928;30.306;2022-09-12T00:51:35;101483.81;;;7.90;100.00
41254;BME280;26987;59.928;30.306;2022-09-12T00:54:06;101487.66;;;7.87;100.00
41254;BME280;26987;59.928;30.306;2022-09-12T00:56:39;101488.84;;;7.85;100.00
41254;BME280;26987;59.928;30.306;2022-09-12T00:59:12;101481.69;;;7.77;100.00
41254;BME280;26987;59.928;30.306;2022-09-12T01:01:42;101489.69;;;7.77;100.00
41254;BME280;26987;59.928;30.306;2022-09-12T01:04:11;101488.34;;;7.73;100.00
41254;BME280;26987;59.928;30.306;2022-09-12T01:06:42;101493.03;;;7.70;100.00
41254;BME280;26987;59.928;30.306;2022-09-12T01:09:12;101485.34;;;7.67;100.00
41254;BME280;26987;59.928;30.306;2022-09-12T01:11:43;101489.38;;;7.63;100.00
41254;BME280;26987;59.928;30.306;2022-09-12T01:14:16;101487.84;;;7.61;100.00
41254;BME280;26987;59.928;30.306;2022-09-12T01:16:45;101489.03;;;7.58;100.00
41254;BME280;26987;59.928;30.306;2022-09-12T01:19:29;101493.03;;;7.62;100.00
41254;BME280;26987;59.928;30.306;2022-09-12T01:22:14;101495.38;;;7.57;100.00
41254;BME280;26987;59.928;30.306;2022-09-12T01:25:00;101480.72;;;7.53;100.00
41254;BME280;26987;59.928;30.306;2022-09-12T01:27:43;101478.19;;;7.43;100.00
41254;BME280;26987;59.928;30.306;2022-09-12T01:30:45;101490.03;;;7.40;100.00
41254;BME280;26987;59.928;30.306;2022-09-12T01:33:42;101484.84;;;7.30;100.00
41254;BME280;26987;59.928;30.306;2022-09-12T01:36:31;101485.22;;;7.27;100.00
41254;BME280;26987;59.928;30.306;2022-09-12T01:39:03;101490.38;;;7.21;100.00
41254;BME280;26987;59.928;30.306;2022-09-12T01:41:41;101483.03;;;7.14;100.00
41254;BME280;26987;59.928;30.306;2022-09-12T01:44:13;101493.38;;;7.09;100.00
41254;BME280;26987;59.928;30.306;2022-09-12T01:46:54;101486.69;;;7.05;100.00
41254;BME280;26987;59.928;30.306;2022-09-12T01:49:26;101486.53;;;6.98;100.00
41254;BME280;26987;59.928;30.306;2022-09-12T01:51:59;101477.84;;;6.96;100.00
41254;BME280;26987;59.928;30.306;2022-09-12T01:54:33;101489.50;;;6.95;100.00
41254;BME280;26987;59.928;30.306;2022-09-12T01:57:07;101493.34;;;6.92;100.00
41254;BME280;26987;59.928;30.306;2022-09-12T01:59:40;101482.50;;;6.86;100.00
41254;BME280;26987;59.928;30.306;2022-09-12T02:02:13;101490.00;;;6.90;100.00
41254;BME280;26987;59.928;30.306;2022-09-12T02:04:46;101488.66;;;6.86;100.00
41254;BME280;26987;59.928;30.306;2022-09-12T02:07:20;101495.16;;;6.84;100.00
41254;BME280;26987;59.928;30.306;2022-09-12T02:09:53;101497.16;;;6.81;100.00
41254;BME280;26987;59.928;30.306;2022-09-12T02:12:25;101492.31;;;6.77;100.00
41254;BME280;26987;59.928;30.306;2022-09-12T02:14:57;101498.31;;;6.79;100.00
41254;BME280;26987;59.928;30.306;2022-09-12T02:17:31;101500.13;;;6.78;100.00
41254;BME280;26987;59.928;30.306;2022-09-12T02:20:07;101498.66;;;6.76;100.00
41254;BME280;26987;59.928;30.306;2022-09-12T02:22:37;101497.97;;;6.74;100.00
41254;BME280;26987;59.928;30.306;2022-09-12T02:25:08;101497.31;;;6.72;100.00
41254;BME280;26987;59.928;30.306;2022-09-12T02:27:40;101501.63;;;6.73;100.00
41254;BME280;26987;59.928;30.306;2022-09-12T02:30:10;101494.81;;;6.70;100.00
41254;BME280;26987;59.928;30.306;2022-09-12T02:32:45;101501.78;;;6.71;100.00
41254;BME280;26987;59.928;30.306;2022-09-12T02:35:24;101492.28;;;6.68;100.00
41254;BME280;26987;59.928;30.306;2022-09-12T02:38:02;101485.28;;;6.67;100.00
41254;BME280;26987;59.928;30.306;2022-09-12T02:40:32;101488.63;;;6.69;100.00
41254;BME280;26987;59.928;30.306;2022-09-12T02:43:02;101493.97;;;6.69;100.00
41254;BME280;26987;59.928;30.306;2022-09-12T02:45:31;101487.13;;;6.67;100.00
41254;BME280;26987;59.928;30.306;2022-09-12T02:48:05;101491.13;;;6.71;100.00
41254;BME280;26987;59.928;30.306;2022-09-12T02:50:35;101484.63;;;6.65;100.00
41254;BME280;26987;59.928;30.306;2022-09-12T02:53:04;101484.78;;;6.64;100.00
41254;BME280;26987;59.928;30.306;2022-09-12T02:55:35;101479.63;;;6.62;100.00
41254;BME280;26987;59.928;30.306;2022-09-12T02:58:04;101483.25;;;6.61;100.00
41254;BME280;26987;59.928;30.306;2022-09-12T03:00:37;101488.44;;;6.63;100.00
41254;BME280;26987;59.928;30.306;2022-09-12T03:03:23;101490.94;;;6.64;100.00
41254;BME280;26987;59.928;30.306;2022-09-12T03:05:56;101453.06;;;6.44;100.00
41254;BME280;26987;59.928;30.306;2022-09-12T03:08:41;101486.59;;;6.63;100.00
41254;BME280;26987;59.928;30.306;2022-09-12T03:11:25;101491.78;;;6.65;100.00
41254;BME280;26987;59.928;30.306;2022-09-12T03:14:08;101491.63;;;6.66;100.00
41254;BME280;26987;59.928;30.306;2022-09-12T03:16:45;101494.59;;;6.63;100.00
41254;BME280;26987;59.928;30.306;2022-09-12T03:19:24;101481.81;;;6.67;100.00
41254;BME280;26987;59.928;30.306;2022-09-12T03:22:02;101492.94;;;6.71;100.00
41254;BME280;26987;59.928;30.306;2022-09-12T03:24:39;101480.47;;;6.71;100.00
41254;BME280;26987;59.928;30.306;2022-09-12T03:27:16;101484.63;;;6.74;100.00
41254;BME280;26987;59.928;30.306;2022-09-12T03:29:47;101482.31;;;6.79;100.00
41254;BME280;26987;59.928;30.306;2022-09-12T03:32:16;101482.66;;;6.84;100.00
41254;BME280;26987;59.928;30.306;2022-09-12T03:34:46;101479.97;;;6.84;100.00
41254;BME280;26987;59.928;30.306;2022-09-12T03:37:14;101484.00;;;6.97;100.00
41254;BME280;26987;59.928;30.306;2022-09-12T03:39:42;101483.38;;;7.28;100.00
41254;BME280;26987;59.928;30.306;2022-09-12T03:42:09;101488.47;;;7.96;95.85
41254;BME280;26987;59.928;30.306;2022-09-12T03:44:37;101491.91;;;8.62;91.73
41254;BME280;26987;59.928;30.306;2022-09-12T03:47:05;101500.22;;;9.22;88.56
41254;BME280;26987;59.928;30.306;2022-09-12T03:49:33;101505.19;;;9.87;83.86
41254;BME280;26987;59.928;30.306;2022-09-12T03:52:03;101504.47;;;10.76;79.48
41254;BME280;26987;59.928;30.306;2022-09-12T03:54:31;101500.28;;;11.32;76.17
41254;BME280;26987;59.928;30.306;2022-09-12T03:56:59;101503.31;;;12.08;72.65
41254;BME280;26987;59.928;30.306;2022-09-12T03:59:27;101506.88;;;12.57;70.18
41254;BME280;26987;59.928;30.306;2022-09-12T04:01:55;101505.34;;;13.10;67.26
41254;BME280;26987;59.928;30.306;2022-09-12T04:04:23;101504.75;;;13.69;64.30
41254;BME280;26987;59.928;30.306;2022-09-12T04:06:51;101515.28;;;14.05;62.04
41254;BME280;26987;59.928;30.306;2022-09-12T04:09:20;101513.00;;;14.61;59.44
41254;BME280;26987;59.928;30.306;2022-09-12T04:11:48;101505.75;;;15.00;56.89
41254;BME280;26987;59.928;30.306;2022-09-12T04:14:16;101507.38;;;15.34;55.25
41254;BME280;26987;59.928;30.306;2022-09-12T04:16:44;101508.94;;;15.93;52.79
41254;BME280;26987;59.928;30.306;2022-09-12T04:19:12;101516.25;;;16.30;51.38
41254;BME280;26987;59.928;30.306;2022-09-12T04:21:39;101517.06;;;16.80;49.48
41254;BME280;26987;59.928;30.306;2022-09-12T04:24:07;101513.47;;;16.98;48.64
41254;BME280;26987;59.928;30.306;2022-09-12T04:26:37;101523.38;;;17.35;47.92
41254;BME280;26987;59.928;30.306;2022-09-12T04:29:05;101520.56;;;17.77;46.14
41254;BME280;26987;59.928;30.306;2022-09-12T04:31:32;101523.59;;;18.05;45.41
41254;BME280;26987;59.928;30.306;2022-09-12T04:34:00;101529.50;;;18.67;43.81
41254;BME280;26987;59.928;30.306;2022-09-12T04:36:28;101523.22;;;18.96;42.92
41254;BME280;26987;59.928;30.306;2022-09-12T04:38:56;101523.63;;;19.04;42.73
41254;BME280;26987;59.928;30.306;2022-09-12T04:41:27;101515.47;;;19.34;41.48
41254;BME280;26987;59.928;30.306;2022-09-12T04:43:58;101523.72;;;19.78;40.90
41254;BME280;26987;59.928;30.306;2022-09-12T04:46:28;101521.66;;;19.86;40.08
41254;BME280;26987;59.928;30.306;2022-09-12T04:48:56;101528.47;;;20.28;38.96
41254;BME280;26987;59.928;30.306;2022-09-12T04:51:25;101531.19;;;20.50;38.29
41254;BME280;26987;59.928;30.306;2022-09-12T04:53:56;101525.03;;;20.88;37.68
41254;BME280;26987;59.928;30.306;2022-09-12T04:56:24;101524.00;;;21.22;37.02
41254;BME280;26987;59.928;30.306;2022-09-12T04:58:52;101533.78;;;21.55;35.92
41254;BME280;26987;59.928;30.306;2022-09-12T05:01:22;101534.94;;;21.60;35.96
41254;BME280;26987;59.928;30.306;2022-09-12T05:03:50;101535.38;;;21.84;35.24
41254;BME280;26987;59.928;30.306;2022-09-12T05:06:20;101530.69;;;21.79;35.42
41254;BME280;26987;59.928;30.306;2022-09-12T05:08:49;101528.19;;;22.21;34.44
41254;BME280;26987;59.928;30.306;2022-09-12T05:11:20;101534.16;;;22.13;34.68
41254;BME280;26987;59.928;30.306;2022-09-12T05:13:49;101530.44;;;22.35;34.14
41254;BME280;26987;59.928;30.306;2022-09-12T05:16:17;101539.44;;;22.40;34.11
41254;BME280;26987;59.928;30.306;2022-09-12T05:18:47;101537.69;;;22.83;33.47
41254;BME280;26987;59.928;30.306;2022-09-12T05:21:17;101540.41;;;22.72;33.64
41254;BME280;26987;59.928;30.306;2022-09-12T05:23:46;101547.25;;;23.06;33.28
41254;BME280;26987;59.928;30.306;2022-09-12T05:26:17;101553.00;;;22.89;32.95
41254;BME280;26987;59.928;30.306;2022-09-12T05:28:46;101555.47;;;23.01;32.88
41254;BME280;26987;59.928;30.306;2022-09-12T05:31:16;101556.56;;;23.15;32.37
41254;BME280;26987;59.928;30.306;2022-09-12T05:33:47;101551.34;;;22.93;32.46
41254;BME280;26987;59.928;30.306;2022-09-12T05:36:16;101548.91;;;23.28;31.89
41254;BME280;26987;59.928;30.306;2022-09-12T05:38:45;101548.09;;;23.22;32.16
41254;BME280;26987;59.928;30.306;2022-09-12T05:41:14;101543.16;;;23.03;32.35
41254;BME280;26987;59.928;30.306;2022-09-12T05:43:43;101543.44;;;23.23;32.22
41254;BME280;26987;59.928;30.306;2022-09-12T05:46:13;101534.44;;;23.22;32.03
41254;BME280;26987;59.928;30.306;2022-09-12T05:48:43;101548.66;;;23.50;31.95
41254;BME280;26987;59.928;30.306;2022-09-12T05:51:14;101540.91;;;23.99;30.91
41254;BME280;26987;59.928;30.306;2022-09-12T05:53:42;101545.38;;;23.22;32.00
41254;BME280;26987;59.928;30.306;2022-09-12T05:56:12;101543.19;;;23.19;31.82
41254;BME280;26987;59.928;30.306;2022-09-12T05:58:42;101547.28;;;23.27;31.92
41254;BME280;26987;59.928;30.306;2022-09-12T06:01:12;101547.00;;;23.23;31.74
41254;BME280;26987;59.928;30.306;2022-09-12T06:03:42;101543.75;;;23.52;31.60
41254;BME280;26987;59.928;30.306;2022-09-12T06:06:12;101538.47;;;23.77;30.99
41254;BME280;26987;59.928;30.306;2022-09-12T06:08:41;101540.88;;;24.04;30.40
41254;BME280;26987;59.928;30.306;2022-09-12T06:11:10;101542.25;;;23.97;30.33
41254;BME280;26987;59.928;30.306;2022-09-12T06:13:40;101542.91;;;23.31;31.32
41254;BME280;26987;59.928;30.306;2022-09-12T06:16:10;101545.63;;;23.26;31.71
41254;BME280;26987;59.928;30.306;2022-09-12T06:18:39;101550.28;;;23.10;32.02
41254;BME280;26987;59.928;30.306;2022-09-12T06:21:09;101548.88;;;22.81;32.02
41254;BME280;26987;59.928;30.306;2022-09-12T06:23:39;101551.78;;;22.53;33.33
41254;BME280;26987;59.928;30.306;2022-09-12T06:26:09;101546.59;;;22.47;32.84
41254;BME280;26987;59.928;30.306;2022-09-12T06:28:38;101545.47;;;21.84;33.64
41254;BME280;26987;59.928;30.306;2022-09-12T06:31:08;101537.44;;;20.73;35.64
41254;BME280;26987;59.928;30.306;2022-09-12T06:33:38;101546.53;;;20.12;36.98
41254;BME280;26987;59.928;30.306;2022-09-12T06:36:09;101542.47;;;19.58;37.47
41254;BME280;26987;59.928;30.306;2022-09-12T06:38:39;101551.44;;;18.95;39.02
41254;BME280;26987;59.928;30.306;2022-09-12T06:41:09;101549.78;;;18.76;39.59
41254;BME280;26987;59.928;30.306;2022-09-12T06:43:38;101543.78;;;18.62;40.02
41254;BME280;26987;59.928;30.306;2022-09-12T06:46:06;101549.59;;;18.13;40.48
41254;BME280;26987;59.928;30.306;2022-09-12T06:48:34;101544.25;;;17.82;41.34
41254;BME280;26987;59.928;30.306;2022-09-12T06:51:04;101538.84;;;17.58;41.73
41254;BME280;26987;59.928;30.306;2022-09-12T06:53:33;101541.81;;;17.14;42.71
41254;BME280;26987;59.928;30.306;2022-09-12T06:56:05;101539.00;;;17.09;43.50
41254;BME280;26987;59.928;30.306;2022-09-12T06:58:33;101536.94;;;16.73;43.77
41254;BME280;26987;59.928;30.306;2022-09-12T07:01:03;101550.34;;;16.49;44.98
41254;BME280;26987;59.928;30.306;2022-09-12T07:03:32;101543.47;;;16.35;45.24
41254;BME280;26987;59.928;30.306;2022-09-12T07:06:02;101545.03;;;16.24;46.26
41254;BME280;26987;59.928;30.306;2022-09-12T07:08:31;101547.56;;;16.00;45.83
41254;BME280;26987;59.928;30.306;2022-09-12T07:11:09;101546.63;;;16.13;46.37
41254;BME280;26987;59.928;30.306;2022-09-12T07:13:38;101539.91;;;15.97;46.26
41254;BME280;26987;59.928;30.306;2022-09-12T07:16:06;101545.81;;;15.87;47.30
41254;BME280;26987;59.928;30.306;2022-09-12T07:18:35;101541.63;;;15.66;46.54
41254;BME280;26987;59.928;30.306;2022-09-12T07:21:05;101535.72;;;15.50;47.64
41254;BME280;26987;59.928;30.306;2022-09-12T07:23:34;101533.56;;;15.33;47.37
41254;BME280;26987;59.928;30.306;2022-09-12T07:26:02;101539.91;;;15.20;47.97
41254;BME280;26987;59.928;30.306;2022-09-12T07:28:32;101542.06;;;15.05;49.69
41254;BME280;26987;59.928;30.306;2022-09-12T07:31:04;101545.34;;;15.13;49.21
41254;BME280;26987;59.928;30.306;2022-09-12T07:33:33;101531.03;;;15.13;49.57
41254;BME280;26987;59.928;30.306;2022-09-12T07:36:01;101532.19;;;15.24;48.94
41254;BME280;26987;59.928;30.306;2022-09-12T07:38:30;101534.50;;;15.20;49.57
41254;BME280;26987;59.928;30.306;2022-09-12T07:40:58;101534.34;;;15.15;49.84
41254;BME280;26987;59.928;30.306;2022-09-12T07:43:27;101531.34;;;15.23;50.16
41254;BME280;26987;59.928;30.306;2022-09-12T07:45:56;101535.91;;;15.30;49.64
41254;BME280;26987;59.928;30.306;2022-09-12T07:48:24;101533.34;;;15.35;50.02
41254;BME280;26987;59.928;30.306;2022-09-12T07:50:58;101533.00;;;15.24;49.23
41254;BME280;26987;59.928;30.306;2022-09-12T07:53:30;101529.47;;;14.98;49.61
41254;BME280;26987;59.928;30.306;2022-09-12T07:55:59;101532.66;;;14.75;50.36
41254;BME280;26987;59.928;30.306;2022-09-12T07:58:28;101536.75;;;14.45;51.43
41254;BME280;26987;59.928;30.306;2022-09-12T08:01:02;101529.88;;;14.49;51.35
41254;BME280;26987;59.928;30.306;2022-09-12T08:03:30;101529.25;;;14.47;52.63
41254;BME280;26987;59.928;30.306;2022-09-12T08:06:03;101530.03;;;14.61;51.45
41254;BME280;26987;59.928;30.306;2022-09-12T08:08:31;101520.72;;;14.57;51.67
41254;BME280;26987;59.928;30.306;2022-09-12T08:10:59;101520.03;;;14.69;51.84
41254;BME280;26987;59.928;30.306;2022-09-12T08:13:29;101526.00;;;14.78;52.54
41254;BME280;26987;59.928;30.306;2022-09-12T08:15:57;101522.88;;;14.87;51.60
41254;BME280;26987;59.928;30.306;2022-09-12T08:18:28;101522.22;;;14.92;50.99
41254;BME280;26987;59.928;30.306;2022-09-12T08:20:58;101520.69;;;15.03;51.81
41254;BME280;26987;59.928;30.306;2022-09-12T08:23:26;101511.13;;;15.07;51.37
41254;BME280;26987;59.928;30.306;2022-09-12T08:25:55;101517.59;;;14.99;50.34
41254;BME280;26987;59.928;30.306;2022-09-12T08:28:24;101517.84;;;14.91;50.90
41254;BME280;26987;59.928;30.306;2022-09-12T08:30:52;101507.63;;;15.00;50.90
41254;BME280;26987;59.928;30.306;2022-09-12T08:33:20;101514.91;;;14.99;50.76
41254;BME280;26987;59.928;30.306;2022-09-12T08:35:49;101513.25;;;14.98;50.71
41254;BME280;26987;59.928;30.306;2022-09-12T08:38:17;101519.13;;;14.88;50.43
41254;BME280;26987;59.928;30.306;2022-09-12T08:40:51;101506.63;;;14.94;50.99
41254;BME280;26987;59.928;30.306;2022-09-12T08:43:30;101517.94;;;15.10;50.23
41254;BME280;26987;59.928;30.306;2022-09-12T08:46:06;101508.63;;;15.06;49.00
41254;BME280;26987;59.928;30.306;2022-09-12T08:48:35;101504.13;;;14.93;49.13
41254;BME280;26987;59.928;30.306;2022-09-12T08:51:09;101504.53;;;14.96;50.57
41254;BME280;26987;59.928;30.306;2022-09-12T08:53:40;101509.88;;;15.03;50.13
41254;BME280;26987;59.928;30.306;2022-09-12T08:56:09;101521.44;;;15.17;50.38
41254;BME280;26987;59.928;30.306;2022-09-12T08:58:40;101513.16;;;15.12;49.42
41254;BME280;26987;59.928;30.306;2022-09-12T09:01:14;101518.72;;;15.17;49.27
41254;BME280;26987;59.928;30.306;2022-09-12T09:04:13;101515.50;;;15.34;48.63
41254;BME280;26987;59.928;30.306;2022-09-12T09:07:03;101514.16;;;15.18;48.89
41254;BME280;26987;59.928;30.306;2022-09-12T09:09:43;101506.94;;;15.11;49.09
41254;BME280;26987;59.928;30.306;2022-09-12T09:12:19;101516.38;;;15.28;49.84
41254;BME280;26987;59.928;30.306;2022-09-12T09:15:00;101518.38;;;15.39;48.61
41254;BME280;26987;59.928;30.306;2022-09-12T09:17:34;101515.78;;;15.25;48.49
41254;BME280;26987;59.928;30.306;2022-09-12T09:20:14;101519.34;;;15.19;48.21
41254;BME280;26987;59.928;30.306;2022-09-12T09:22:50;101520.34;;;15.25;48.20
41254;BME280;26987;59.928;30.306;2022-09-12T09:25:22;101519.34;;;15.19;48.52
41254;BME280;26987;59.928;30.306;2022-09-12T09:27:56;101517.63;;;15.25;49.40
41254;BME280;26987;59.928;30.306;2022-09-12T09:30:25;101516.75;;;15.31;49.09
41254;BME280;26987;59.928;30.306;2022-09-12T09:32:55;101516.47;;;15.39;48.53
41254;BME280;26987;59.928;30.306;2022-09-12T09:35:36;101513.50;;;15.48;48.12
41254;BME280;26987;59.928;30.306;2022-09-12T09:38:21;101512.19;;;15.57;48.55
41254;BME280;26987;59.928;30.306;2022-09-12T09:40:57;101513.00;;;15.58;48.88
41254;BME280;26987;59.928;30.306;2022-09-12T09:43:27;101505.94;;;15.57;48.64
41254;BME280;26987;59.928;30.306;2022-09-12T09:45:56;101503.03;;;15.58;49.17
41254;BME280;26987;59.928;30.306;2022-09-12T09:48:27;101508.81;;;15.62;48.00
41254;BME280;26987;59.928;30.306;2022-09-12T09:50:58;101499.03;;;15.42;48.24
41254;BME280;26987;59.928;30.306;2022-09-12T09:53:34;101500.25;;;15.39;49.02
41254;BME280;26987;59.928;30.306;2022-09-12T09:56:08;101495.69;;;15.40;48.98
41254;BME280;26987;59.928;30.306;2022-09-12T09:58:38;101494.06;;;15.39;48.65
41254;BME280;26987;59.928;30.306;2022-09-12T10:01:13;101489.63;;;15.45;49.02
41254;BME280;26987;59.928;30.306;2022-09-12T10:03:47;101485.03;;;15.45;49.13
41254;BME280;26987;59.928;30.306;2022-09-12T10:06:25;101474.28;;;15.64;48.58
41254;BME280;26987;59.928;30.306;2022-09-12T10:09:18;101467.97;;;15.70;47.99
41254;BME280;26987;59.928;30.306;2022-09-12T10:11:47;101467.16;;;15.25;48.24
41254;BME280;26987;59.928;30.306;2022-09-12T10:14:31;101463.84;;;15.23;48.83
41254;BME280;26987;59.928;30.306;2022-09-12T10:17:01;101469.75;;;15.13;48.53
41254;BME280;26987;59.928;30.306;2022-09-12T10:19:34;101473.69;;;15.11;48.51
41254;BME280;26987;59.928;30.306;2022-09-12T10:22:03;101466.31;;;14.99;47.94
41254;BME280;26987;59.928;30.306;2022-09-12T10:24:35;101464.66;;;14.98;49.53
41254;BME280;26987;59.928;30.306;2022-09-12T10:27:08;101461.28;;;15.03;49.67
41254;BME280;26987;59.928;30.306;2022-09-12T10:29:40;101466.19;;;15.13;49.24
41254;BME280;26987;59.928;30.306;2022-09-12T10:32:23;101477.78;;;15.20;49.29
41254;BME280;26987;59.928;30.306;2022-09-12T10:34:53;101469.38;;;15.03;49.05
41254;BME280;26987;59.928;30.306;2022-09-12T10:37:25;101463.41;;;14.94;49.66
41254;BME280;26987;59.928;30.306;2022-09-12T10:39:58;101470.50;;;14.95;49.92
41254;BME280;26987;59.928;30.306;2022-09-12T10:42:48;101468.00;;;14.94;49.88
41254;BME280;26987;59.928;30.306;2022-09-12T10:45:19;101463.75;;;14.72;50.19
41254;BME280;26987;59.928;30.306;2022-09-12T10:47:47;101467.66;;;14.76;50.59
41254;BME280;26987;59.928;30.306;2022-09-12T10:50:19;101465.19;;;14.82;50.26
41254;BME280;26987;59.928;30.306;2022-09-12T10:52:47;101458.72;;;14.76;50.49
41254;BME280;26987;59.928;30.306;2022-09-12T10:55:16;101458.06;;;14.87;50.00
41254;BME280;26987;59.928;30.306;2022-09-12T10:58:03;101459.25;;;14.98;49.63
41254;BME280;26987;59.928;30.306;2022-09-12T11:00:38;101452.25;;;14.91;49.28
41254;BME280;26987;59.928;30.306;2022-09-12T11:03:14;101452.19;;;14.97;49.39
41254;BME280;26987;59.928;30.306;2022-09-12T11:05:51;101453.63;;;15.00;49.58
41254;BME280;26987;59.928;30.306;2022-09-12T11:08:39;101446.09;;;15.09;49.42
41254;BME280;26987;59.928;30.306;2022-09-12T11:11:23;101448.72;;;15.16;49.56
41254;BME280;26987;59.928;30.306;2022-09-12T11:14:12;101449.25;;;15.24;49.01
41254;BME280;26987;59.928;30.306;2022-09-12T11:16:49;101443.72;;;15.19;49.07
41254;BME280;26987;59.928;30.306;2022-09-12T11:19:49;101442.53;;;15.34;48.83
41254;BME280;26987;59.928;30.306;2022-09-12T11:22:35;101436.53;;;15.32;49.08
41254;BME280;26987;59.928;30.306;2022-09-12T11:25:23;101452.28;;;15.35;48.87
41254;BME280;26987;59.928;30.306;2022-09-12T11:28:11;101444.47;;;15.26;49.14
41254;BME280;26987;59.928;30.306;2022-09-12T11:30:54;101442.00;;;15.25;49.20
41254;BME280;26987;59.928;30.306;2022-09-12T11:33:36;101441.59;;;15.21;49.25
41254;BME280;26987;59.928;30.306;2022-09-12T11:36:16;101447.41;;;15.25;49.13
41254;BME280;26987;59.928;30.306;2022-09-12T11:39:02;101442.75;;;15.32;49.15
41254;BME280;26987;59.928;30.306;2022-09-12T11:41:36;101439.00;;;15.33;48.85
41254;BME280;26987;59.928;30.306;2022-09-12T11:44:12;101446.19;;;15.46;48.96
41254;BME280;26987;59.928;30.306;2022-09-12T11:46:42;101451.50;;;15.53;48.12
41254;BME280;26987;59.928;30.306;2022-09-12T11:49:18;101443.19;;;15.55;47.19
41254;BME280;26987;59.928;30.306;2022-09-12T11:51:51;101448.34;;;15.37;47.68
41254;BME280;26987;59.928;30.306;2022-09-12T11:54:25;101459.25;;;15.49;47.97
41254;BME280;26987;59.928;30.306;2022-09-12T11:57:03;101452.47;;;15.59;47.76
41254;BME280;26987;59.928;30.306;2022-09-12T11:59:42;101447.06;;;15.59;47.64
41254;BME280;26987;59.928;30.306;2022-09-12T12:02:14;101454.28;;;15.65;47.31
41254;BME280;26987;59.928;30.306;2022-09-12T12:04:58;101463.72;;;15.81;46.85
41254;BME280;26987;59.928;30.306;2022-09-12T12:07:33;101465.72;;;15.86;47.03
41254;BME280;26987;59.928;30.306;2022-09-12T12:10:06;101449.13;;;15.63;46.65
41254;BME280;26987;59.928;30.306;2022-09-12T12:12:35;101476.16;;;15.63;46.98
41254;BME280;26987;59.928;30.306;2022-09-12T12:15:05;101471.25;;;15.54;47.06
41254;BME280;26987;59.928;30.306;2022-09-12T12:17:33;101470.66;;;15.51;47.38
41254;BME280;26987;59.928;30.306;2022-09-12T12:20:03;101472.91;;;15.55;47.69
41254;BME280;26987;59.928;30.306;2022-09-12T12:22:31;101459.34;;;15.61;47.65
41254;BME280;26987;59.928;30.306;2022-09-12T12:25:22;101461.81;;;15.82;46.93
41254;BME280;26987;59.928;30.306;2022-09-12T12:27:55;101453.78;;;15.75;46.79
41254;BME280;26987;59.928;30.306;2022-09-12T12:30:59;101469.38;;;15.98;46.55
41254;BME280;26987;59.928;30.306;2022-09-12T12:33:51;101458.78;;;15.97;47.18
41254;BME280;26987;59.928;30.306;2022-09-12T12:36:35;101463.22;;;16.10;46.92
41254;BME280;26987;59.928;30.306;2022-09-12T12:46:03;101453.94;;;16.18;46.38
41254;BME280;26987;59.928;30.306;2022-09-12T12:48:41;101455.41;;;16.01;46.31
41254;BME280;26987;59.928;30.306;2022-09-12T12:51:47;101455.84;;;16.17;46.74
41254;BME280;26987;59.928;30.306;2022-09-12T13:00:02;101454.13;;;16.04;46.63
41254;BME280;26987;59.928;30.306;2022-09-12T13:02:34;101450.44;;;15.98;46.97
41254;BME280;26987;59.928;30.306;2022-09-12T13:05:15;101444.00;;;15.99;47.06
41254;BME280;26987;59.928;30.306;2022-09-12T13:07:44;101444.00;;;15.99;46.10
41254;BME280;26987;59.928;30.306;2022-09-12T13:10:20;101439.63;;;15.98;46.65
41254;BME280;26987;59.928;30.306;2022-09-12T13:12:50;101450.56;;;15.85;46.31
41254;BME280;26987;59.928;30.306;2022-09-12T13:18:15;101439.91;;;15.71;47.52
41254;BME280;26987;59.928;30.306;2022-09-12T13:20:48;101441.66;;;15.59;48.16
41254;BME280;26987;59.928;30.306;2022-09-12T13:23:22;101436.78;;;15.49;48.47
41254;BME280;26987;59.928;30.306;2022-09-12T13:25:55;101432.34;;;15.36;48.69